Time;durP1;ratioP1;P1;durP2;ratioP2;P2;SDS_P1;SDS_P2;PMS_P1;PMS_P2;Temp;Humidity;BMP_temperature;BMP_pressure;BME280_temperature;BME280_humidity;BME280_pressure;Samples;Min_cycle;Max_cycle;Signal;HPM_P1;HPM_P2
2021/04/15 00:00:48;;;;;;;5.90;3.30;;;;;;;;;;4972386;28;20187;-79
2021/04/15 00:03:15;;;;;;;6.53;3.33;;;;;;;;;;4972331;28;20184;-82
2021/04/15 00:05:41;;;;;;;5.83;3.47;;;;;;;;;;4972345;28;20568;-79
2021/04/15 00:08:07;;;;;;;5.13;3.30;;;;;;;;;;4972009;28;20185;-81
2021/04/15 00:10:35;;;;;;;7.23;3.40;;;;;;;;;;4972272;28;20270;-81
2021/04/15 00:13:01;;;;;;;5.23;3.70;;;;;;;;;;4972000;28;20183;-81
2021/04/15 00:15:27;;;;;;;6.03;3.07;;;;;;;;;;4972082;28;20263;-80
2021/04/15 00:17:53;;;;;;;5.30;3.40;;;;;;;;;;4971765;28;20212;-81
2021/04/15 00:20:19;;;;;;;5.53;3.50;;;;;;;;;;4972111;28;20189;-81
2021/04/15 00:22:45;;;;;;;4.33;3.57;;;;;;;;;;4972017;28;20715;-82
2021/04/15 00:25:11;;;;;;;4.40;3.17;;;;;;;;;;4973313;28;20201;-80
2021/04/15 00:27:37;;;;;;;5.53;3.60;;;;;;;;;;4971896;28;20569;-81
2021/04/15 00:30:07;;;;;;;6.30;3.70;;;;;;;;;;4973015;28;20179;-81
2021/04/15 00:32:33;;;;;;;6.30;3.83;;;;;;;;;;4971656;28;20712;-82
2021/04/15 00:34:59;;;;;;;6.07;3.43;;;;;;;;;;4971825;28;20203;-81
2021/04/15 00:37:25;;;;;;;5.90;3.33;;;;;;;;;;4971920;28;20226;-82
2021/04/15 00:39:51;;;;;;;10.37;3.73;;;;;;;;;;4971941;28;20200;-81
2021/04/15 00:42:17;;;;;;;4.40;3.40;;;;;;;;;;4971499;28;20239;-82
2021/04/15 00:44:43;;;;;;;5.17;3.53;;;;;;;;;;4971563;28;20230;-79
2021/04/15 00:47:22;;;;;;;6.43;3.80;;;;;;;;;;4975441;28;20250;-80
2021/04/15 00:49:53;;;;;;;5.10;3.90;;;;;;;;;;4976071;28;20182;-83
2021/04/15 00:52:20;;;;;;;5.33;4.03;;;;;;;;;;4975691;28;20482;-81
2021/04/15 00:54:48;;;;;;;7.33;3.87;;;;;;;;;;4975726;28;20246;-81
2021/04/15 00:57:33;;;;;;;5.50;3.80;;;;;;;;;;4975389;28;20659;-83
2021/04/15 00:59:59;;;;;;;6.93;4.10;;;;;;;;;;4975785;28;20191;-81
2021/04/15 01:02:26;;;;;;;6.27;3.93;;;;;;;;;;4975432;28;20346;-81
2021/04/15 01:04:52;;;;;;;5.13;3.97;;;;;;;;;;4976793;28;20193;-83
2021/04/15 01:07:19;;;;;;;4.97;4.37;;;;;;;;;;4975550;28;20191;-82
2021/04/15 01:09:45;;;;;;;5.50;3.90;;;;;;;;;;4975783;28;20210;-80
2021/04/15 01:12:19;;;;;;;5.53;4.20;;;;;;;;;;4975085;28;20188;-81
2021/04/15 01:14:57;;;;;;;6.57;4.53;;;;;;;;;;4975776;28;20604;-81
2021/04/15 01:17:28;;;;;;;8.23;4.80;;;;;;;;;;4975939;28;20274;-82
2021/04/15 01:20:06;;;;;;;10.07;4.83;;;;;;;;;;4976023;28;20695;-82
2021/04/15 01:22:51;;;;;;;5.10;4.20;;;;;;;;;;4976551;28;20183;-82
2021/04/15 01:25:27;;;;;;;7.97;4.90;;;;;;;;;;4976840;28;20199;-81
2021/04/15 01:28:20;;;;;;;11.83;5.17;;;;;;;;;;4975638;28;20184;-80
2021/04/15 01:30:46;;;;;;;5.00;4.17;;;;;;;;;;4973838;28;20199;-81
2021/04/15 01:33:13;;;;;;;7.13;4.50;;;;;;;;;;4974853;28;20439;-81
2021/04/15 01:35:41;;;;;;;7.00;4.13;;;;;;;;;;4975068;28;20231;-82
2021/04/15 01:38:12;;;;;;;5.70;4.17;;;;;;;;;;4974804;28;20215;-81
2021/04/15 01:40:39;;;;;;;6.10;4.13;;;;;;;;;;4974745;28;20262;-80
2021/04/15 01:43:08;;;;;;;7.20;4.50;;;;;;;;;;4974677;28;20184;-82
2021/04/15 01:45:34;;;;;;;6.10;4.43;;;;;;;;;;4974743;28;20247;-82
2021/04/15 01:48:10;;;;;;;5.97;4.47;;;;;;;;;;4974754;28;20267;-81
2021/04/15 01:50:37;;;;;;;6.80;4.43;;;;;;;;;;4975256;28;20239;-78
2021/04/15 01:53:06;;;;;;;5.83;4.70;;;;;;;;;;4975390;28;20640;-81
2021/04/15 01:55:33;;;;;;;5.57;4.57;;;;;;;;;;4974521;28;20718;-82
2021/04/15 01:58:05;;;;;;;5.17;4.27;;;;;;;;;;4973626;28;20220;-81
2021/04/15 02:00:31;;;;;;;5.60;4.40;;;;;;;;;;4974576;28;20636;-83
2021/04/15 02:02:58;;;;;;;7.30;4.80;;;;;;;;;;4974105;28;20718;-81
2021/04/15 02:05:24;;;;;;;5.93;4.77;;;;;;;;;;4974254;28;20192;-81
2021/04/15 02:07:52;;;;;;;7.73;4.97;;;;;;;;;;4974437;28;20184;-81
2021/04/15 02:10:18;;;;;;;6.60;4.70;;;;;;;;;;4974435;28;20299;-81
2021/04/15 02:12:45;;;;;;;6.97;4.97;;;;;;;;;;4973881;28;20183;-80
2021/04/15 02:15:11;;;;;;;9.10;5.37;;;;;;;;;;4974298;28;20203;-81
2021/04/15 02:17:38;;;;;;;5.73;4.50;;;;;;;;;;4975348;28;20173;-81
2021/04/15 02:20:06;;;;;;;7.23;5.00;;;;;;;;;;4974158;28;20184;-81
2021/04/15 02:22:32;;;;;;;9.40;5.03;;;;;;;;;;4974699;28;20652;-80
2021/04/15 02:25:05;;;;;;;7.57;5.10;;;;;;;;;;4976593;28;20335;-82
2021/04/15 02:27:31;;;;;;;6.43;4.47;;;;;;;;;;4974309;28;20656;-80
2021/04/15 02:30:00;;;;;;;7.10;5.37;;;;;;;;;;4973951;28;20270;-80
2021/04/15 02:32:30;;;;;;;6.70;5.03;;;;;;;;;;4974314;28;20208;-81
2021/04/15 02:35:23;;;;;;;8.40;5.33;;;;;;;;;;4974754;28;20200;-82
2021/04/15 02:37:53;;;;;;;7.27;5.20;;;;;;;;;;4974274;28;20224;-80
2021/04/15 02:40:30;;;;;;;6.53;4.90;;;;;;;;;;4974451;28;20199;-80
2021/04/15 02:42:57;;;;;;;7.07;5.00;;;;;;;;;;4974821;28;20179;-82
2021/04/15 02:45:31;;;;;;;6.60;5.20;;;;;;;;;;4974870;28;20214;-80
2021/04/15 02:47:58;;;;;;;6.90;4.90;;;;;;;;;;4975923;28;20657;-80
2021/04/15 02:50:24;;;;;;;8.20;5.10;;;;;;;;;;4973945;28;20196;-80
2021/04/15 02:52:52;;;;;;;9.27;5.73;;;;;;;;;;4973487;28;20656;-81
2021/04/15 02:55:20;;;;;;;8.20;5.60;;;;;;;;;;4974207;28;20749;-82
2021/04/15 02:58:01;;;;;;;6.93;5.07;;;;;;;;;;4974960;28;20210;-80
2021/04/15 03:00:28;;;;;;;8.13;5.70;;;;;;;;;;4974024;28;20184;-81
2021/04/15 03:03:02;;;;;;;7.53;5.63;;;;;;;;;;4973546;28;20195;-80
2021/04/15 03:05:32;;;;;;;7.60;5.70;;;;;;;;;;4975736;28;20199;-80
2021/04/15 03:07:58;;;;;;;8.90;5.73;;;;;;;;;;4973428;28;20609;-81
2021/04/15 03:10:25;;;;;;;9.20;5.80;;;;;;;;;;4974766;28;20191;-79
2021/04/15 03:13:00;;;;;;;9.17;5.43;;;;;;;;;;4973948;28;20191;-81
2021/04/15 03:15:27;;;;;;;7.33;5.63;;;;;;;;;;4975546;28;20366;-80
2021/04/15 03:18:00;;;;;;;8.67;5.53;;;;;;;;;;4974197;28;20211;-81
2021/04/15 03:20:30;;;;;;;8.83;6.17;;;;;;;;;;4974459;28;20605;-79
2021/04/15 03:22:57;;;;;;;9.47;5.57;;;;;;;;;;4974641;28;20182;-81
2021/04/15 03:25:23;;;;;;;7.50;5.90;;;;;;;;;;4974547;28;20195;-81
2021/04/15 03:28:12;;;;;;;9.50;6.30;;;;;;;;;;4974572;28;20191;-81
2021/04/15 03:30:41;;;;;;;7.83;5.40;;;;;;;;;;4969141;28;20233;-81
2021/04/15 03:33:09;;;;;;;10.73;5.67;;;;;;;;;;4974777;28;20555;-80
2021/04/15 03:35:42;;;;;;;7.97;6.17;;;;;;;;;;4974612;28;20208;-80
2021/04/15 03:38:08;;;;;;;8.00;5.97;;;;;;;;;;4974041;28;20221;-79
2021/04/15 03:40:34;;;;;;;8.30;5.97;;;;;;;;;;4976741;28;20559;-81
2021/04/15 03:43:01;;;;;;;9.03;6.43;;;;;;;;;;4974312;28;20680;-79
2021/04/15 03:45:28;;;;;;;7.93;6.10;;;;;;;;;;4974188;28;20698;-81
2021/04/15 03:47:55;;;;;;;8.27;5.53;;;;;;;;;;4973751;28;20268;-83
2021/04/15 03:50:23;;;;;;;8.33;5.90;;;;;;;;;;4973760;28;20187;-83
2021/04/15 03:53:05;;;;;;;9.60;5.93;;;;;;;;;;4973607;28;20191;-82
2021/04/15 03:55:33;;;;;;;11.03;6.03;;;;;;;;;;4973625;28;20208;-83
2021/04/15 03:58:00;;;;;;;10.67;6.40;;;;;;;;;;4973600;28;20311;-83
2021/04/15 04:00:31;;;;;;;9.03;6.60;;;;;;;;;;4973883;28;20191;-82
2021/04/15 04:02:58;;;;;;;12.73;6.80;;;;;;;;;;4973323;28;20220;-82
2021/04/15 04:05:28;;;;;;;9.47;6.20;;;;;;;;;;4973808;28;20627;-81
2021/04/15 04:07:56;;;;;;;9.17;6.60;;;;;;;;;;4974504;28;20191;-83
2021/04/15 04:10:29;;;;;;;9.53;6.70;;;;;;;;;;4974150;28;20194;-82
2021/04/15 04:13:15;;;;;;;9.40;6.47;;;;;;;;;;4974385;28;20242;-81
2021/04/15 04:15:41;;;;;;;9.57;6.93;;;;;;;;;;4976262;28;20290;-81
2021/04/15 04:18:11;;;;;;;10.43;6.90;;;;;;;;;;4975971;28;20218;-83
2021/04/15 04:20:39;;;;;;;9.20;7.20;;;;;;;;;;4973771;28;20175;-83
2021/04/15 04:23:10;;;;;;;11.43;7.03;;;;;;;;;;4973924;28;20650;-83
2021/04/15 04:25:46;;;;;;;10.90;7.00;;;;;;;;;;4973422;28;20204;-83
2021/04/15 04:28:13;;;;;;;9.97;6.73;;;;;;;;;;4973838;28;20195;-82
2021/04/15 04:30:45;;;;;;;9.87;6.77;;;;;;;;;;4973769;28;20285;-83
2021/04/15 04:33:11;;;;;;;10.83;8.13;;;;;;;;;;4973671;28;20183;-82
2021/04/15 04:35:39;;;;;;;15.83;7.73;;;;;;;;;;4973563;28;20200;-82
2021/04/15 04:38:06;;;;;;;9.70;7.43;;;;;;;;;;4973256;28;20252;-82
2021/04/15 04:40:33;;;;;;;10.53;7.23;;;;;;;;;;4973109;28;20234;-82
2021/04/15 04:43:13;;;;;;;10.77;7.80;;;;;;;;;;4973284;28;20191;-84
2021/04/15 04:45:39;;;;;;;14.07;8.10;;;;;;;;;;4973220;28;20230;-81
2021/04/15 04:48:05;;;;;;;9.83;7.37;;;;;;;;;;4973123;28;20178;-82
2021/04/15 04:50:50;;;;;;;11.90;7.37;;;;;;;;;;4973884;28;20723;-83
2021/04/15 04:53:26;;;;;;;12.10;8.00;;;;;;;;;;4974805;28;20194;-81
2021/04/15 04:55:58;;;;;;;11.40;7.70;;;;;;;;;;4989548;28;20205;-82
2021/04/15 04:58:24;;;;;;;11.17;8.13;;;;;;;;;;4991591;28;20729;-84
2021/04/15 05:00:50;;;;;;;10.40;7.70;;;;;;;;;;4997231;28;20191;-80
2021/04/15 05:03:19;;;;;;;13.83;7.77;;;;;;;;;;4993093;28;20299;-79
2021/04/15 05:05:45;;;;;;;10.17;7.40;;;;;;;;;;4993790;28;20203;-79
2021/04/15 05:08:11;;;;;;;11.07;7.60;;;;;;;;;;4975932;28;20573;-76
2021/04/15 05:10:37;;;;;;;11.10;7.57;;;;;;;;;;4991373;28;20193;-77
2021/04/15 05:13:09;;;;;;;11.53;8.60;;;;;;;;;;4991455;28;20190;-76
2021/04/15 05:15:35;;;;;;;11.43;8.23;;;;;;;;;;4991414;28;20708;-77
2021/04/15 05:18:01;;;;;;;14.73;8.20;;;;;;;;;;4975225;28;20204;-78
2021/04/15 05:20:27;;;;;;;11.57;8.47;;;;;;;;;;4992099;28;20691;-79
2021/04/15 05:22:58;;;;;;;13.30;8.60;;;;;;;;;;4991724;28;20262;-79
2021/04/15 05:25:34;;;;;;;13.50;8.37;;;;;;;;;;4975226;28;20299;-79
2021/04/15 05:28:00;;;;;;;12.53;8.77;;;;;;;;;;4991651;28;20187;-76
2021/04/15 05:30:32;;;;;;;11.83;9.07;;;;;;;;;;4992377;28;20548;-76
2021/04/15 05:32:59;;;;;;;11.50;9.47;;;;;;;;;;4993443;28;20187;-77
2021/04/15 05:35:26;;;;;;;11.67;8.03;;;;;;;;;;4978299;28;20209;-78
2021/04/15 05:37:55;;;;;;;13.90;8.83;;;;;;;;;;4994326;28;20191;-76
2021/04/15 05:40:21;;;;;;;12.03;9.33;;;;;;;;;;4995760;28;20211;-76
2021/04/15 05:42:48;;;;;;;15.60;8.30;;;;;;;;;;4994218;28;20173;-77
2021/04/15 05:45:16;;;;;;;10.90;8.40;;;;;;;;;;4994196;28;20225;-77
2021/04/15 05:47:49;;;;;;;16.10;9.07;;;;;;;;;;4978331;28;20181;-78
2021/04/15 05:50:16;;;;;;;13.47;8.70;;;;;;;;;;4994976;28;20186;-79
2021/04/15 05:52:43;;;;;;;14.40;8.80;;;;;;;;;;4994433;28;20718;-79
2021/04/15 05:55:14;;;;;;;10.30;8.40;;;;;;;;;;4994339;28;20203;-79
2021/04/15 05:57:41;;;;;;;13.07;7.87;;;;;;;;;;4993132;28;20183;-79
2021/04/15 06:00:21;;;;;;;10.20;7.87;;;;;;;;;;4993790;28;20203;-78
2021/04/15 06:03:00;;;;;;;13.47;8.13;;;;;;;;;;4993832;28;20229;-74
2021/04/15 06:05:44;;;;;;;10.33;7.57;;;;;;;;;;4994481;28;20194;-78
2021/04/15 06:08:10;;;;;;;10.83;7.23;;;;;;;;;;5007624;28;20190;-75
2021/04/15 06:10:37;;;;;;;11.63;7.40;;;;;;;;;;4977980;28;20714;-76
2021/04/15 06:13:21;;;;;;;11.10;6.80;;;;;;;;;;4994953;28;20179;-76
2021/04/15 06:15:54;;;;;;;8.70;6.87;;;;;;;;;;4995793;28;20203;-76
2021/04/15 06:18:21;;;;;;;9.30;6.80;;;;;;;;;;4996799;28;20262;-76
2021/04/15 06:20:48;;;;;;;9.97;6.43;;;;;;;;;;4996088;28;20180;-81
2021/04/15 06:23:18;;;;;;;11.67;6.43;;;;;;;;;;4994297;28;20181;-82
2021/04/15 06:25:45;;;;;;;13.10;6.80;;;;;;;;;;5001391;28;20671;-79
2021/04/15 06:28:11;;;;;;;9.30;6.07;;;;;;;;;;4975524;28;20217;-81
2021/04/15 06:30:55;;;;;;;7.83;6.20;;;;;;;;;;4992980;28;20216;-77
2021/04/15 06:33:21;;;;;;;10.00;6.63;;;;;;;;;;4993975;28;20190;-79
2021/04/15 06:35:48;;;;;;;9.07;5.93;;;;;;;;;;4994976;28;20207;-76
2021/04/15 06:38:16;;;;;;;9.73;5.93;;;;;;;;;;4978373;28;20591;-77
2021/04/15 06:40:42;;;;;;;10.40;5.67;;;;;;;;;;4994358;28;20203;-78
2021/04/15 06:43:08;;;;;;;7.13;5.20;;;;;;;;;;4995785;28;20652;-79
2021/04/15 06:45:52;;;;;;;8.50;5.47;;;;;;;;;;4995418;28;20253;-79
2021/04/15 06:48:25;;;;;;;11.07;5.37;;;;;;;;;;4996018;28;20187;-78
2021/04/15 06:51:04;;;;;;;9.70;4.87;;;;;;;;;;4995193;28;20562;-78
2021/04/15 06:53:36;;;;;;;9.80;5.07;;;;;;;;;;4995980;28;20597;-78
2021/04/15 06:56:09;;;;;;;6.83;4.67;;;;;;;;;;4979805;28;20212;-78
2021/04/15 06:58:35;;;;;;;8.93;5.00;;;;;;;;;;4995912;28;20228;-79
2021/04/15 07:01:07;;;;;;;8.70;4.53;;;;;;;;;;4997284;28;20633;-78
2021/04/15 07:03:36;;;;;;;10.93;4.23;;;;;;;;;;4995764;28;20227;-78
2021/04/15 07:06:13;;;;;;;7.93;3.37;;;;;;;;;;4996571;28;20203;-78
2021/04/15 07:08:58;;;;;;;6.53;2.97;;;;;;;;;;4979428;28;20279;-78
2021/04/15 07:11:31;;;;;;;8.47;3.17;;;;;;;;;;4995630;28;20653;-78
2021/04/15 07:14:11;;;;;;;7.60;3.67;;;;;;;;;;4995267;28;20178;-77
2021/04/15 07:16:37;;;;;;;8.63;3.40;;;;;;;;;;4992652;28;20640;-75
2021/04/15 07:19:22;;;;;;;6.10;3.70;;;;;;;;;;4993303;28;20287;-74
2021/04/15 07:22:17;;;;;;;7.57;3.70;;;;;;;;;;4992304;28;20269;-74
2021/04/15 07:24:48;;;;;;;7.80;3.30;;;;;;;;;;4957592;28;20693;-74
2021/04/15 07:27:21;;;;;;;6.47;3.27;;;;;;;;;;4992434;28;20197;-74
2021/04/15 07:29:56;;;;;;;7.83;3.10;;;;;;;;;;4992236;28;20189;-74
2021/04/15 07:32:26;;;;;;;11.13;3.30;;;;;;;;;;4993354;28;20182;-74
2021/04/15 07:35:11;;;;;;;8.17;3.40;;;;;;;;;;4991691;28;20208;-74
2021/04/15 07:37:41;;;;;;;7.37;3.30;;;;;;;;;;4973769;28;20667;-74
2021/04/15 07:40:24;;;;;;;8.23;3.30;;;;;;;;;;4972412;28;20186;-74
2021/04/15 07:42:59;;;;;;;9.53;3.20;;;;;;;;;;4956748;28;20186;-75
2021/04/15 07:45:28;;;;;;;5.10;2.90;;;;;;;;;;4984358;28;20223;-75
2021/04/15 07:48:00;;;;;;;6.80;3.00;;;;;;;;;;4991960;28;20177;-77
2021/04/15 07:50:45;;;;;;;7.13;3.00;;;;;;;;;;4993368;28;20175;-74
2021/04/15 07:53:30;;;;;;;8.30;3.53;;;;;;;;;;4991899;28;20653;-74
2021/04/15 07:56:19;;;;;;;5.77;2.63;;;;;;;;;;4992399;28;20207;-74
2021/04/15 07:59:04;;;;;;;7.50;2.40;;;;;;;;;;4956069;28;20225;-75
2021/04/15 08:01:42;;;;;;;7.30;3.03;;;;;;;;;;4993029;28;20180;-75
2021/04/15 08:04:14;;;;;;;4.80;2.83;;;;;;;;;;4992904;28;20176;-73
2021/04/15 08:07:10;;;;;;;4.77;2.73;;;;;;;;;;4992816;28;20186;-73
2021/04/15 08:09:56;;;;;;;5.73;2.50;;;;;;;;;;4980534;28;20615;-74
2021/04/15 08:12:24;;;;;;;6.57;2.90;;;;;;;;;;4962544;28;20656;-74
2021/04/15 08:15:02;;;;;;;5.50;2.43;;;;;;;;;;4991423;28;20254;-72
2021/04/15 08:17:28;;;;;;;6.80;2.80;;;;;;;;;;4993307;28;20182;-74
2021/04/15 08:20:06;;;;;;;6.83;2.47;;;;;;;;;;4992863;28;20702;-74
2021/04/15 08:22:38;;;;;;;5.00;2.57;;;;;;;;;;4991416;28;20665;-74
2021/04/15 08:25:23;;;;;;;6.37;2.40;;;;;;;;;;4992675;28;20197;-76
2021/04/15 08:27:49;;;;;;;5.37;3.00;;;;;;;;;;4991506;28;20216;-74
2021/04/15 08:30:30;;;;;;;8.03;2.50;;;;;;;;;;4993424;28;20271;-75
2021/04/15 08:33:02;;;;;;;5.47;2.63;;;;;;;;;;4993058;28;20184;-75
2021/04/15 08:35:28;;;;;;;7.30;2.60;;;;;;;;;;4993576;28;20200;-75
2021/04/15 08:37:57;;;;;;;3.93;2.57;;;;;;;;;;4991972;28;20603;-74
2021/04/15 08:40:41;;;;;;;6.47;2.50;;;;;;;;;;4992351;28;20174;-73
2021/04/15 08:43:07;;;;;;;5.47;3.10;;;;;;;;;;4992091;28;20189;-73
2021/04/15 08:45:33;;;;;;;10.23;3.07;;;;;;;;;;4992128;28;20274;-72
2021/04/15 08:48:18;;;;;;;6.50;3.30;;;;;;;;;;4992343;28;20182;-73
2021/04/15 08:50:59;;;;;;;8.20;3.17;;;;;;;;;;4990570;28;20207;-73
2021/04/15 08:53:44;;;;;;;4.97;2.80;;;;;;;;;;4959530;28;20187;-73
2021/04/15 08:56:10;;;;;;;5.27;2.90;;;;;;;;;;4991920;28;20208;-73
2021/04/15 08:58:52;;;;;;;7.07;2.60;;;;;;;;;;4974779;28;20209;-74
2021/04/15 09:01:22;;;;;;;3.40;2.33;;;;;;;;;;4992240;28;20177;-73
2021/04/15 09:03:53;;;;;;;4.20;2.67;;;;;;;;;;4990755;28;20240;-73
2021/04/15 09:06:26;;;;;;;4.37;2.47;;;;;;;;;;4991525;28;20196;-72
2021/04/15 09:08:55;;;;;;;3.00;2.17;;;;;;;;;;4978226;28;20183;-72
2021/04/15 09:11:21;;;;;;;8.70;2.93;;;;;;;;;;4995612;28;20674;-72
2021/04/15 09:13:56;;;;;;;6.57;2.90;;;;;;;;;;4995492;28;20269;-72
2021/04/15 09:16:28;;;;;;;5.80;2.50;;;;;;;;;;4994892;28;20250;-75
2021/04/15 09:19:03;;;;;;;2.87;2.00;;;;;;;;;;4996189;28;20213;-74
2021/04/15 09:21:32;;;;;;;4.43;2.50;;;;;;;;;;4994883;28;20693;-74
2021/04/15 09:24:10;;;;;;;5.27;2.50;;;;;;;;;;4994509;28;20193;-76
2021/04/15 09:26:36;;;;;;;3.17;2.30;;;;;;;;;;4993561;28;20678;-76
2021/04/15 09:29:17;;;;;;;6.63;3.00;;;;;;;;;;4995379;28;20181;-75
2021/04/15 09:31:50;;;;;;;4.30;2.50;;;;;;;;;;4994649;28;20592;-75
2021/04/15 09:34:35;;;;;;;5.40;2.67;;;;;;;;;;4987549;28;20191;-74
2021/04/15 09:37:04;;;;;;;4.03;2.40;;;;;;;;;;4997396;28;20543;-75
2021/04/15 09:39:48;;;;;;;5.93;2.33;;;;;;;;;;4995832;28;20274;-72
2021/04/15 09:42:20;;;;;;;2.50;2.10;;;;;;;;;;4996669;28;20174;-74
2021/04/15 09:44:50;;;;;;;3.87;2.10;;;;;;;;;;4997955;28;20212;-74
2021/04/15 09:47:33;;;;;;;4.37;2.23;;;;;;;;;;4997143;28;20224;-74
2021/04/15 09:50:11;;;;;;;4.60;2.30;;;;;;;;;;4980690;28;20721;-74
2021/04/15 09:52:39;;;;;;;6.93;2.40;;;;;;;;;;4996466;28;20182;-73
2021/04/15 09:55:26;;;;;;;5.37;2.20;;;;;;;;;;4997207;28;20237;-74
2021/04/15 09:57:55;;;;;;;5.37;2.17;;;;;;;;;;4977149;28;20201;-74
2021/04/15 10:00:25;;;;;;;4.47;2.30;;;;;;;;;;4997300;28;20717;-73
2021/04/15 10:03:01;;;;;;;3.53;2.30;;;;;;;;;;4981260;28;20619;-74
2021/04/15 10:05:30;;;;;;;5.90;2.73;;;;;;;;;;4981190;28;20712;-74
2021/04/15 10:07:56;;;;;;;5.13;2.67;;;;;;;;;;4996278;28;20663;-74
2021/04/15 10:10:33;;;;;;;5.07;2.20;;;;;;;;;;4995709;28;20787;-74
2021/04/15 10:13:18;;;;;;;5.30;2.50;;;;;;;;;;4980424;28;20273;-73
2021/04/15 10:15:44;;;;;;;4.97;2.30;;;;;;;;;;4976501;28;20205;-75
2021/04/15 10:18:29;;;;;;;5.07;2.50;;;;;;;;;;4976040;28;20209;-74
2021/04/15 10:21:02;;;;;;;5.27;2.50;;;;;;;;;;4977998;28;20176;-75
2021/04/15 10:23:32;;;;;;;5.30;2.60;;;;;;;;;;4960617;28;20179;-74
2021/04/15 10:25:58;;;;;;;5.43;2.80;;;;;;;;;;4977431;28;20201;-74
2021/04/15 10:28:43;;;;;;;5.13;2.50;;;;;;;;;;4976230;28;20209;-74
2021/04/15 10:31:25;;;;;;;5.67;2.60;;;;;;;;;;4976968;28;20681;-74
2021/04/15 10:33:57;;;;;;;5.10;2.50;;;;;;;;;;4976518;28;20192;-74
2021/04/15 10:36:26;;;;;;;4.57;2.60;;;;;;;;;;4976551;28;20303;-74
2021/04/15 10:38:55;;;;;;;7.60;2.87;;;;;;;;;;4976287;28;20302;-74
2021/04/15 10:41:27;;;;;;;4.43;2.40;;;;;;;;;;4976790;28;20182;-73
2021/04/15 10:43:53;;;;;;;5.73;2.70;;;;;;;;;;4993984;28;20222;-74
2021/04/15 10:46:25;;;;;;;4.70;2.33;;;;;;;;;;4996297;28;20306;-74
2021/04/15 10:48:51;;;;;;;4.43;2.50;;;;;;;;;;4997190;28;20187;-74
2021/04/15 10:51:25;;;;;;;3.97;2.63;;;;;;;;;;4996214;28;20560;-74
2021/04/15 10:53:58;;;;;;;4.63;2.50;;;;;;;;;;4978309;28;20194;-74
2021/04/15 10:56:27;;;;;;;5.73;2.50;;;;;;;;;;4995626;28;20204;-74
2021/04/15 10:58:53;;;;;;;3.20;2.10;;;;;;;;;;4997650;28;20208;-74
2021/04/15 11:01:27;;;;;;;6.17;2.30;;;;;;;;;;4978270;28;20195;-74
2021/04/15 11:03:54;;;;;;;5.23;1.93;;;;;;;;;;4993914;28;20242;-74
2021/04/15 11:06:32;;;;;;;4.97;2.40;;;;;;;;;;4994861;28;20239;-74
2021/04/15 11:09:17;;;;;;;5.87;2.30;;;;;;;;;;4994540;28;20172;-74
2021/04/15 11:12:03;;;;;;;4.57;2.20;;;;;;;;;;4996363;28;20180;-74
2021/04/15 11:14:32;;;;;;;3.80;2.10;;;;;;;;;;4994595;28;20215;-74
2021/04/15 11:16:58;;;;;;;4.83;1.97;;;;;;;;;;4979220;28;20172;-74
2021/04/15 11:19:25;;;;;;;4.50;2.03;;;;;;;;;;4977034;28;20266;-73
2021/04/15 11:21:53;;;;;;;3.53;2.07;;;;;;;;;;4975698;28;20516;-74
2021/04/15 11:24:30;;;;;;;4.57;2.03;;;;;;;;;;4975894;28;20552;-72
2021/04/15 11:26:57;;;;;;;5.13;2.30;;;;;;;;;;4975889;28;20190;-73
2021/04/15 11:29:38;;;;;;;3.03;1.87;;;;;;;;;;4991419;28;20192;-73
2021/04/15 11:32:21;;;;;;;3.73;2.23;;;;;;;;;;4993658;28;20179;-74
2021/04/15 11:35:00;;;;;;;4.03;2.00;;;;;;;;;;5022743;23;20223;-77
2021/04/15 11:37:26;;;;;;;3.30;1.93;;;;;;;;;;5012024;28;20166;-77
2021/04/15 11:39:52;;;;;;;4.53;1.90;;;;;;;;;;4987429;28;20208;-76
2021/04/15 11:42:18;;;;;;;7.60;2.10;;;;;;;;;;5007667;28;20320;-76
2021/04/15 11:44:47;;;;;;;5.17;2.30;;;;;;;;;;5011678;28;20247;-77
2021/04/15 11:47:29;;;;;;;4.30;2.00;;;;;;;;;;5013354;28;20175;-76
2021/04/15 11:50:11;;;;;;;2.80;2.07;;;;;;;;;;5013530;28;20269;-76
2021/04/15 11:52:41;;;;;;;3.40;2.40;;;;;;;;;;4993446;28;20239;-77
2021/04/15 11:55:27;;;;;;;3.97;2.13;;;;;;;;;;4993425;28;20285;-79
2021/04/15 11:57:56;;;;;;;4.00;2.20;;;;;;;;;;4997143;28;20180;-79
2021/04/15 12:00:24;;;;;;;5.67;2.10;;;;;;;;;;5014187;28;20179;-78
2021/04/15 12:02:56;;;;;;;4.27;2.30;;;;;;;;;;5013842;28;20228;-78
2021/04/15 12:05:27;;;;;;;6.87;2.30;;;;;;;;;;5012887;28;20199;-78
2021/04/15 12:08:12;;;;;;;5.23;2.10;;;;;;;;;;5012336;28;20187;-78
2021/04/15 12:10:43;;;;;;;3.63;2.30;;;;;;;;;;5012592;28;20166;-78
2021/04/15 12:13:32;;;;;;;5.77;2.33;;;;;;;;;;5014566;28;20162;-78
2021/04/15 12:15:58;;;;;;;3.03;1.93;;;;;;;;;;5011699;28;20293;-78
2021/04/15 12:18:26;;;;;;;7.27;2.67;;;;;;;;;;5013850;28;20732;-79
2021/04/15 12:21:01;;;;;;;5.37;2.17;;;;;;;;;;4996316;28;20174;-78
2021/04/15 12:23:32;;;;;;;5.23;1.67;;;;;;;;;;5012553;28;20181;-79
2021/04/15 12:26:02;;;;;;;5.63;2.00;;;;;;;;;;4996191;28;20676;-78
2021/04/15 12:28:43;;;;;;;5.87;2.10;;;;;;;;;;5014224;28;20229;-79
2021/04/15 12:31:14;;;;;;;3.00;2.23;;;;;;;;;;5013201;28;20171;-79
2021/04/15 12:34:04;;;;;;;5.30;2.10;;;;;;;;;;5012565;28;20275;-78
2021/04/15 12:36:34;;;;;;;3.20;1.90;;;;;;;;;;5001367;28;20580;-77
2021/04/15 12:39:06;;;;;;;4.63;2.20;;;;;;;;;;5011027;28;20578;-77
2021/04/15 12:41:32;;;;;;;5.33;2.40;;;;;;;;;;5006425;28;20318;-77
2021/04/15 12:44:18;;;;;;;5.37;2.07;;;;;;;;;;5010816;28;20254;-77
2021/04/15 12:46:44;;;;;;;3.73;2.00;;;;;;;;;;5012403;28;20686;-77
2021/04/15 12:49:11;;;;;;;3.13;1.80;;;;;;;;;;4995315;28;20183;-78
2021/04/15 12:51:39;;;;;;;2.30;1.60;;;;;;;;;;4995350;28;20639;-77
2021/04/15 12:54:06;;;;;;;4.10;1.80;;;;;;;;;;4995209;28;20226;-78
2021/04/15 12:56:34;;;;;;;6.23;2.00;;;;;;;;;;5011204;28;20639;-77
2021/04/15 12:59:00;;;;;;;4.23;2.20;;;;;;;;;;5010892;28;20233;-77
2021/04/15 13:01:28;;;;;;;5.13;2.10;;;;;;;;;;5027469;28;20202;-78
2021/04/15 13:03:54;;;;;;;3.77;2.20;;;;;;;;;;5026947;28;20157;-78
2021/04/15 13:06:20;;;;;;;6.73;2.40;;;;;;;;;;5010855;28;20551;-77
2021/04/15 13:08:50;;;;;;;5.07;2.23;;;;;;;;;;5027122;28;20177;-77
2021/04/15 13:11:16;;;;;;;2.70;2.00;;;;;;;;;;5010526;28;20652;-77
2021/04/15 13:13:48;;;;;;;4.33;2.10;;;;;;;;;;5011555;28;20188;-77
2021/04/15 13:16:38;;;;;;;4.43;2.13;;;;;;;;;;5011957;28;20653;-77
2021/04/15 13:19:05;;;;;;;4.27;2.10;;;;;;;;;;5010518;28;20695;-77
2021/04/15 13:21:35;;;;;;;3.53;2.00;;;;;;;;;;5010573;28;20189;-76
2021/04/15 13:24:01;;;;;;;3.67;2.27;;;;;;;;;;4993663;28;20210;-76
2021/04/15 13:26:31;;;;;;;6.30;2.30;;;;;;;;;;5011633;28;20182;-76
2021/04/15 13:29:01;;;;;;;3.43;2.00;;;;;;;;;;5010851;28;20186;-77
2021/04/15 13:31:47;;;;;;;2.97;1.70;;;;;;;;;;4994398;28;20187;-77
2021/04/15 13:34:17;;;;;;;3.33;1.73;;;;;;;;;;5011547;28;20250;-76
2021/04/15 13:36:43;;;;;;;5.07;1.80;;;;;;;;;;5010984;28;20179;-77
2021/04/15 13:39:28;;;;;;;4.93;1.87;;;;;;;;;;5010067;28;20202;-78
2021/04/15 13:41:55;;;;;;;5.23;1.87;;;;;;;;;;5011910;28;20238;-78
2021/04/15 13:44:40;;;;;;;3.13;2.03;;;;;;;;;;5010772;28;20290;-77
2021/04/15 13:47:24;;;;;;;5.53;2.57;;;;;;;;;;5011595;28;20179;-77
2021/04/15 13:49:50;;;;;;;5.40;1.60;;;;;;;;;;5011974;28;20253;-77
2021/04/15 13:52:32;;;;;;;3.33;1.83;;;;;;;;;;5009213;28;20670;-77
2021/04/15 13:54:58;;;;;;;3.53;1.80;;;;;;;;;;4995202;28;20566;-77
2021/04/15 13:57:45;;;;;;;3.10;2.03;;;;;;;;;;4997052;28;20253;-77
2021/04/15 14:00:12;;;;;;;5.33;1.80;;;;;;;;;;5013545;28;20706;-77
2021/04/15 14:02:46;;;;;;;2.77;2.00;;;;;;;;;;5013293;28;20225;-77
2021/04/15 14:05:24;;;;;;;3.93;1.80;;;;;;;;;;5028262;28;20400;-77
2021/04/15 14:07:51;;;;;;;4.30;2.03;;;;;;;;;;5029877;28;20184;-77
2021/04/15 14:10:17;;;;;;;4.07;1.90;;;;;;;;;;4995905;28;20182;-77
2021/04/15 14:12:43;;;;;;;2.70;1.60;;;;;;;;;;5011113;28;20185;-77
2021/04/15 14:15:27;;;;;;;5.50;1.83;;;;;;;;;;5014559;28;20263;-77
2021/04/15 14:17:58;;;;;;;18.23;10.17;;;;;;;;;;5014671;28;20192;-77
2021/04/15 14:20:36;;;;;;;4.10;2.37;;;;;;;;;;4997245;28;20659;-77
2021/04/15 14:23:03;;;;;;;3.87;2.20;;;;;;;;;;5014098;28;20575;-77
2021/04/15 14:25:33;;;;;;;4.07;2.30;;;;;;;;;;5013652;28;20200;-79
2021/04/15 14:27:59;;;;;;;17.40;3.03;;;;;;;;;;5014050;28;20260;-77
2021/04/15 14:30:25;;;;;;;11.23;2.40;;;;;;;;;;5015296;28;20178;-78
2021/04/15 14:32:51;;;;;;;5.80;2.57;;;;;;;;;;4994722;28;20201;-78
2021/04/15 14:35:18;;;;;;;2.70;2.23;;;;;;;;;;4978501;28;20234;-77
2021/04/15 14:37:44;;;;;;;4.47;1.97;;;;;;;;;;5002975;28;20181;-77
2021/04/15 14:40:21;;;;;;;3.50;1.90;;;;;;;;;;5014570;28;20290;-78
2021/04/15 14:42:47;;;;;;;2.73;1.90;;;;;;;;;;4998801;28;20752;-78
2021/04/15 14:45:16;;;;;;;3.67;1.90;;;;;;;;;;5014806;28;20222;-77
2021/04/15 14:47:47;;;;;;;3.33;2.00;;;;;;;;;;4995322;28;20682;-76
2021/04/15 14:50:15;;;;;;;3.50;2.20;;;;;;;;;;4993575;28;20264;-77
2021/04/15 14:52:42;;;;;;;2.93;2.10;;;;;;;;;;5016627;28;20203;-78
2021/04/15 14:55:18;;;;;;;3.53;1.90;;;;;;;;;;5020356;28;20348;-80
2021/04/15 14:57:44;;;;;;;2.47;1.83;;;;;;;;;;5017084;28;20229;-79
2021/04/15 15:00:14;;;;;;;3.43;2.10;;;;;;;;;;5002770;28;20208;-80
2021/04/15 15:02:40;;;;;;;3.47;1.70;;;;;;;;;;5000876;28;20813;-78
2021/04/15 15:05:07;;;;;;;3.67;1.90;;;;;;;;;;4996888;28;20204;-78
2021/04/15 15:07:34;;;;;;;2.03;1.70;;;;;;;;;;5028284;28;20197;-77